createdAt,value
2023-02-06T00:01:32.916Z,4.00
2023-02-06T00:03:59.891Z,4.00
2023-02-06T00:06:26.909Z,3.90
2023-02-06T00:08:54.168Z,4.00
2023-02-06T00:11:21.854Z,4.00
2023-02-06T00:13:49.021Z,4.00
2023-02-06T00:16:28.160Z,3.90
2023-02-06T00:18:56.575Z,3.90
2023-02-06T00:21:26.142Z,3.90
2023-02-06T00:23:55.634Z,3.90
2023-02-06T00:26:23.532Z,3.80
2023-02-06T00:28:50.655Z,3.80
2023-02-06T00:31:18.385Z,3.70
2023-02-06T00:33:45.561Z,3.70
2023-02-06T00:36:12.534Z,3.70
2023-02-06T00:38:39.661Z,3.60
2023-02-06T00:41:06.645Z,3.60
2023-02-06T00:43:34.182Z,3.60
2023-02-06T00:46:01.237Z,3.60
2023-02-06T00:48:28.889Z,3.50
2023-02-06T00:50:57.074Z,3.50
2023-02-06T00:53:24.293Z,3.50
2023-02-06T00:55:52.176Z,3.50
2023-02-06T00:58:22.027Z,3.50
2023-02-06T01:00:49.168Z,3.50
2023-02-06T01:03:19.706Z,3.40
2023-02-06T01:05:46.748Z,3.40
2023-02-06T01:08:13.716Z,3.40
2023-02-06T01:10:42.602Z,3.40
2023-02-06T01:13:10.248Z,3.30
2023-02-06T01:15:38.303Z,3.30
2023-02-06T01:18:05.621Z,3.30
2023-02-06T01:20:33.216Z,3.30
2023-02-06T01:23:00.207Z,3.30
2023-02-06T01:25:27.365Z,3.30
2023-02-06T01:27:54.319Z,3.20
2023-02-06T01:30:21.465Z,3.20
2023-02-06T01:32:49.647Z,3.30
2023-02-06T01:35:16.770Z,3.30
2023-02-06T01:37:44.242Z,3.30
2023-02-06T01:40:15.776Z,3.40
2023-02-06T01:42:43.172Z,3.40
2023-02-06T01:45:25.202Z,3.40
2023-02-06T01:48:21.013Z,3.50
2023-02-06T01:50:53.723Z,3.40
2023-02-06T01:53:22.442Z,3.40
2023-02-06T01:55:51.376Z,3.40
2023-02-06T01:58:33.931Z,3.40
2023-02-06T02:01:03.122Z,3.50
2023-02-06T02:03:36.663Z,3.50
2023-02-06T02:06:10.047Z,3.50
2023-02-06T02:08:40.213Z,3.50
2023-02-06T02:11:09.130Z,3.60
2023-02-06T02:13:38.446Z,3.60
2023-02-06T02:16:25.045Z,3.60
2023-02-06T02:19:04.220Z,3.70
2023-02-06T02:21:49.354Z,3.70
2023-02-06T02:24:22.246Z,3.70
2023-02-06T02:27:11.182Z,3.70
2023-02-06T02:29:50.544Z,3.80
2023-02-06T02:32:48.322Z,3.80
2023-02-06T02:35:21.758Z,3.80
2023-02-06T02:38:13.402Z,3.80
2023-02-06T02:40:57.334Z,3.80
2023-02-06T02:43:27.452Z,3.80
2023-02-06T02:46:07.332Z,3.80
2023-02-06T02:48:41.825Z,3.90
2023-02-06T02:51:10.582Z,3.80
2023-02-06T02:53:37.868Z,3.90
2023-02-06T02:56:22.573Z,3.90
2023-02-06T02:58:56.793Z,3.90
2023-02-06T03:01:34.187Z,3.90
2023-02-06T03:04:08.881Z,3.90
2023-02-06T03:06:48.481Z,3.90
2023-02-06T03:09:28.846Z,4.00
2023-02-06T03:12:44.981Z,4.00
2023-02-06T03:15:31.216Z,4.00
2023-02-06T03:18:15.141Z,4.00
2023-02-06T03:20:45.266Z,4.00
2023-02-06T03:23:18.986Z,4.10
2023-02-06T03:25:47.729Z,4.10
2023-02-06T03:28:22.385Z,4.10
2023-02-06T03:30:53.444Z,4.20
2023-02-06T03:33:26.814Z,4.10
2023-02-06T03:35:55.270Z,4.20
2023-02-06T03:38:24.771Z,4.10
2023-02-06T03:40:54.696Z,4.10
2023-02-06T03:43:26.857Z,4.10
2023-02-06T03:46:00.436Z,4.10
2023-02-06T03:48:36.154Z,4.00
2023-02-06T03:51:09.705Z,3.90
2023-02-06T03:53:38.898Z,3.90
2023-02-06T03:56:14.319Z,3.80
2023-02-06T03:58:41.308Z,3.80
2023-02-06T04:01:08.549Z,3.70
2023-02-06T04:03:35.539Z,3.70
2023-02-06T04:06:02.525Z,3.70
2023-02-06T04:08:29.549Z,3.70
2023-02-06T04:10:56.484Z,3.70
2023-02-06T04:13:23.451Z,3.70
2023-02-06T04:15:50.444Z,3.70
2023-02-06T04:18:17.587Z,3.80
2023-02-06T04:20:44.496Z,3.80
2023-02-06T04:23:11.515Z,3.80
2023-02-06T04:25:38.625Z,3.80
2023-02-06T04:28:05.766Z,3.80
2023-02-06T04:30:32.908Z,3.80
2023-02-06T04:32:59.922Z,3.80
2023-02-06T04:35:26.886Z,3.80
2023-02-06T04:37:54.371Z,3.80
2023-02-06T04:40:21.612Z,3.80
2023-02-06T04:42:48.541Z,3.80
2023-02-06T04:45:15.589Z,3.70
2023-02-06T04:47:42.526Z,3.70
2023-02-06T04:50:10.646Z,3.70
2023-02-06T04:52:37.745Z,3.70
2023-02-06T04:55:04.946Z,3.60
2023-02-06T04:57:31.965Z,3.60
2023-02-06T04:59:58.983Z,3.60
2023-02-06T05:02:25.989Z,3.60
2023-02-06T05:04:52.926Z,3.60
2023-02-06T05:07:20.386Z,3.60
2023-02-06T05:09:47.410Z,3.70
2023-02-06T05:12:14.441Z,3.70
2023-02-06T05:14:41.436Z,3.70
2023-02-06T05:17:08.416Z,3.70
2023-02-06T05:19:35.494Z,3.80
2023-02-06T05:22:02.617Z,3.70
2023-02-06T05:24:29.612Z,3.70
2023-02-06T05:26:58.466Z,3.70
2023-02-06T05:29:26.525Z,3.60
2023-02-06T05:31:53.648Z,3.60
2023-02-06T05:34:20.798Z,3.50
2023-02-06T05:36:47.853Z,3.50
2023-02-06T05:39:15.021Z,3.40
2023-02-06T05:41:41.919Z,3.50
2023-02-06T05:44:11.035Z,3.50
2023-02-06T05:46:38.362Z,3.50
2023-02-06T05:49:05.536Z,3.50
2023-02-06T05:51:32.499Z,3.50
2023-02-06T05:53:59.722Z,3.60
2023-02-06T05:56:26.772Z,3.60
2023-02-06T05:58:53.849Z,3.60
2023-02-06T06:01:20.790Z,3.60
2023-02-06T06:03:47.945Z,3.60
2023-02-06T06:06:14.889Z,3.60
2023-02-06T06:08:41.812Z,3.60
2023-02-06T06:11:08.708Z,3.60
2023-02-06T06:13:35.722Z,3.60
2023-02-06T06:16:02.664Z,3.60
2023-02-06T06:18:29.724Z,3.60
2023-02-06T06:20:57.024Z,3.60
2023-02-06T06:23:26.291Z,3.60
2023-02-06T06:25:53.184Z,3.60
2023-02-06T06:28:20.293Z,3.60
2023-02-06T06:30:47.362Z,3.60
2023-02-06T06:33:16.436Z,3.60
2023-02-06T06:35:43.566Z,3.60
2023-02-06T06:38:10.508Z,3.60
2023-02-06T06:40:37.459Z,3.60
2023-02-06T06:43:04.759Z,3.60
2023-02-06T06:45:31.697Z,3.60
2023-02-06T06:47:58.734Z,3.60
2023-02-06T06:50:25.886Z,3.70
2023-02-06T06:52:52.791Z,3.70
2023-02-06T06:55:19.884Z,3.70
2023-02-06T06:57:47.770Z,3.70
2023-02-06T07:00:16.001Z,3.70
2023-02-06T07:02:43.124Z,3.70
2023-02-06T07:05:10.472Z,3.70
2023-02-06T07:07:39.196Z,3.70
2023-02-06T07:10:08.449Z,3.80
2023-02-06T07:12:35.937Z,3.80
2023-02-06T07:15:02.945Z,3.80
2023-02-06T07:17:29.850Z,3.80
2023-02-06T07:19:57.002Z,3.80
2023-02-06T07:22:25.593Z,3.80
2023-02-06T07:24:54.432Z,3.90
2023-02-06T07:27:21.814Z,3.90
2023-02-06T07:29:48.739Z,3.90
2023-02-06T07:32:15.868Z,3.90
2023-02-06T07:34:43.280Z,3.90
2023-02-06T07:37:10.535Z,4.00
2023-02-06T07:39:37.636Z,3.90
2023-02-06T07:42:05.494Z,3.90
2023-02-06T07:44:48.517Z,3.90
2023-02-06T07:47:15.555Z,3.90
2023-02-06T07:49:42.474Z,4.00
2023-02-06T07:52:09.514Z,4.00
2023-02-06T07:54:36.809Z,4.00
2023-02-06T07:57:03.839Z,4.00
2023-02-06T07:59:30.767Z,4.00
2023-02-06T08:02:00.836Z,4.10
2023-02-06T08:04:35.065Z,4.10
2023-02-06T08:07:03.674Z,4.10
2023-02-06T08:09:31.800Z,4.20
2023-02-06T08:12:01.555Z,4.20
2023-02-06T08:14:29.015Z,4.20
2023-02-06T08:16:56.205Z,4.20
2023-02-06T08:19:23.328Z,4.30
2023-02-06T08:21:50.420Z,4.30
2023-02-06T08:24:17.893Z,4.40
2023-02-06T08:26:44.846Z,4.40
2023-02-06T08:29:14.378Z,4.50
2023-02-06T08:31:42.638Z,4.50
2023-02-06T08:34:13.822Z,4.60
2023-02-06T08:36:43.458Z,4.60
2023-02-06T08:39:13.826Z,4.70
2023-02-06T08:41:43.398Z,4.70
2023-02-06T08:44:16.540Z,4.80
2023-02-06T08:46:44.839Z,4.80
2023-02-06T08:49:15.061Z,4.80
2023-02-06T08:51:42.492Z,4.90
2023-02-06T08:54:16.416Z,4.90
2023-02-06T08:56:43.818Z,5.00
2023-02-06T08:59:13.143Z,5.00
2023-02-06T09:01:40.873Z,5.00
2023-02-06T09:04:10.255Z,5.00
2023-02-06T09:06:40.584Z,5.10
2023-02-06T09:09:08.746Z,5.20
2023-02-06T09:11:37.347Z,5.30
2023-02-06T09:14:06.592Z,5.30
2023-02-06T09:16:34.490Z,5.40
2023-02-06T09:19:02.973Z,5.50
2023-02-06T09:21:32.884Z,5.50
2023-02-06T09:24:03.621Z,5.50
2023-02-06T09:26:40.567Z,5.60
2023-02-06T09:29:13.164Z,5.60
2023-02-06T09:31:42.705Z,5.60
2023-02-06T09:34:11.534Z,5.70
2023-02-06T09:36:38.740Z,5.80
2023-02-06T09:39:07.568Z,5.90
2023-02-06T09:41:46.389Z,6.00
2023-02-06T09:44:30.010Z,6.00
2023-02-06T09:47:06.277Z,6.10
2023-02-06T09:49:39.693Z,6.10
2023-02-06T09:52:44.302Z,6.10
2023-02-06T09:55:34.630Z,6.20
2023-02-06T09:58:07.673Z,6.20
2023-02-06T10:01:01.057Z,6.20
2023-02-06T10:03:47.220Z,6.30
2023-02-06T10:07:05.312Z,6.40
2023-02-06T10:09:51.504Z,6.50
2023-02-06T10:12:39.106Z,6.60
2023-02-06T10:15:19.146Z,6.70
2023-02-06T10:17:52.540Z,6.70
2023-02-06T10:20:29.917Z,6.70
2023-02-06T10:23:15.163Z,6.80
2023-02-06T10:26:06.124Z,6.80
2023-02-06T10:28:35.632Z,6.90
2023-02-06T10:31:23.816Z,7.00
2023-02-06T10:34:14.628Z,7.10
2023-02-06T10:36:46.081Z,7.20
2023-02-06T10:39:31.658Z,7.30
2023-02-06T10:42:23.162Z,7.40
2023-02-06T10:44:51.536Z,7.50
2023-02-06T10:47:30.778Z,7.50
2023-02-06T10:50:22.056Z,7.60
2023-02-06T10:52:49.535Z,7.60
2023-02-06T10:55:57.118Z,7.60
2023-02-06T10:58:53.101Z,7.70
2023-02-06T11:01:26.440Z,7.70
2023-02-06T11:04:12.267Z,7.70
2023-02-06T11:06:42.826Z,7.70
2023-02-06T11:09:10.417Z,7.80
2023-02-06T11:11:41.188Z,7.80
2023-02-06T11:14:17.199Z,7.80
2023-02-06T11:16:45.707Z,7.90
2023-02-06T11:19:20.072Z,7.90
2023-02-06T11:22:12.133Z,8.00
2023-02-06T11:24:57.687Z,8.10
2023-02-06T11:27:25.548Z,8.10
2023-02-06T11:29:52.625Z,8.10
2023-02-06T11:32:36.694Z,8.10
2023-02-06T11:35:24.145Z,8.10
2023-02-06T11:38:05.486Z,8.10
2023-02-06T11:40:32.741Z,8.20
2023-02-06T11:43:23.598Z,8.10
2023-02-06T11:46:05.221Z,8.10
2023-02-06T11:48:39.102Z,8.10
2023-02-06T11:51:07.812Z,8.10
2023-02-06T11:53:35.939Z,8.10
2023-02-06T11:56:17.164Z,8.20
2023-02-06T11:58:45.212Z,8.30
2023-02-06T12:01:21.305Z,8.30
2023-02-06T12:03:51.454Z,8.40
2023-02-06T12:06:31.074Z,8.40
2023-02-06T12:09:00.615Z,8.50
2023-02-06T12:11:44.982Z,8.40
2023-02-06T12:14:26.185Z,8.40
2023-02-06T12:16:54.105Z,8.40
2023-02-06T12:19:35.982Z,8.40
2023-02-06T12:22:16.427Z,8.50
2023-02-06T12:24:48.199Z,8.50
2023-02-06T12:27:21.137Z,8.40
2023-02-06T12:30:06.522Z,8.40
2023-02-06T12:32:41.187Z,8.30
2023-02-06T12:35:21.647Z,8.30
2023-02-06T12:37:53.663Z,8.30
2023-02-06T12:40:49.693Z,8.20
2023-02-06T12:43:19.431Z,8.20
2023-02-06T12:46:19.293Z,8.10
2023-02-06T12:48:56.234Z,8.00
2023-02-06T12:51:45.004Z,8.00
2023-02-06T12:54:12.205Z,8.00
2023-02-06T12:56:48.348Z,8.00
2023-02-06T12:59:25.086Z,8.10
2023-02-06T13:02:36.557Z,8.20
2023-02-06T13:05:17.696Z,8.40
2023-02-06T13:07:50.223Z,8.50
2023-02-06T13:10:24.924Z,8.60
2023-02-06T13:12:59.727Z,8.70
2023-02-06T13:15:32.100Z,8.70
2023-02-06T13:18:00.128Z,8.70
2023-02-06T13:20:27.805Z,8.60
2023-02-06T13:23:22.338Z,8.60
2023-02-06T13:25:49.534Z,8.50
2023-02-06T13:28:22.923Z,8.40
2023-02-06T13:31:00.807Z,8.30
2023-02-06T13:33:39.926Z,8.20
2023-02-06T13:36:15.823Z,8.10
2023-02-06T13:38:43.794Z,8.20
2023-02-06T13:41:16.652Z,8.40
2023-02-06T13:43:59.778Z,8.50
2023-02-06T13:46:56.698Z,8.60
2023-02-06T13:49:53.996Z,8.70
2023-02-06T13:52:40.482Z,8.70
2023-02-06T13:55:45.247Z,8.60
2023-02-06T13:58:37.487Z,8.50
2023-02-06T14:01:20.222Z,8.30
2023-02-06T14:03:53.389Z,8.10
2023-02-06T14:06:48.513Z,8.00
2023-02-06T14:10:02.231Z,8.00
2023-02-06T14:13:12.411Z,7.90
2023-02-06T14:16:17.422Z,7.80
2023-02-06T14:19:00.604Z,7.90
2023-02-06T14:21:39.244Z,7.90
2023-02-06T14:24:06.459Z,8.20
2023-02-06T14:27:11.146Z,8.40
2023-02-06T14:29:47.271Z,8.70
2023-02-06T14:32:23.402Z,8.90
2023-02-06T14:35:02.802Z,8.90
2023-02-06T14:38:07.435Z,8.80
2023-02-06T14:40:41.901Z,8.80
2023-02-06T14:43:17.570Z,8.70
2023-02-06T14:46:07.489Z,8.70
2023-02-06T14:48:47.344Z,8.70
2023-02-06T14:51:39.350Z,8.70
2023-02-06T14:54:40.559Z,8.70
2023-02-06T14:57:25.207Z,8.70
2023-02-06T15:00:05.762Z,8.70
2023-02-06T15:02:35.688Z,8.60
2023-02-06T15:05:04.633Z,8.60
2023-02-06T15:07:35.055Z,8.50
2023-02-06T15:10:30.426Z,8.50
2023-02-06T15:12:57.583Z,8.50
2023-02-06T15:15:27.726Z,8.40
2023-02-06T15:18:07.833Z,8.40
2023-02-06T15:20:41.196Z,8.40
2023-02-06T15:23:40.764Z,8.20
2023-02-06T15:26:29.900Z,8.10
2023-02-06T15:29:00.052Z,7.90
2023-02-06T15:31:28.516Z,7.80
2023-02-06T15:33:58.926Z,7.70
2023-02-06T15:36:34.918Z,7.60
2023-02-06T15:39:05.250Z,7.60
2023-02-06T15:41:33.342Z,7.50
2023-02-06T15:44:18.641Z,7.50
2023-02-06T15:46:47.756Z,7.40
2023-02-06T15:49:42.550Z,7.30
2023-02-06T15:52:12.331Z,7.30
2023-02-06T15:54:42.698Z,7.20
2023-02-06T15:57:40.851Z,7.20
2023-02-06T16:00:23.789Z,7.20
2023-02-06T16:02:52.679Z,7.10
2023-02-06T16:05:33.594Z,7.00
2023-02-06T16:08:03.031Z,7.00
2023-02-06T16:10:35.790Z,7.00
2023-02-06T16:13:14.742Z,6.90
2023-02-06T16:16:04.698Z,6.90
2023-02-06T16:18:35.461Z,6.80
2023-02-06T16:21:17.999Z,6.70
2023-02-06T16:24:09.761Z,6.70
2023-02-06T16:26:49.712Z,6.60
2023-02-06T16:29:27.413Z,6.50
2023-02-06T16:32:15.253Z,6.40
2023-02-06T16:34:44.501Z,6.40
2023-02-06T16:37:14.056Z,6.30
2023-02-06T16:39:42.638Z,6.20
2023-02-06T16:42:21.920Z,6.10
2023-02-06T16:44:54.684Z,6.10
2023-02-06T16:47:22.457Z,6.00
2023-02-06T16:49:49.755Z,6.00
2023-02-06T16:52:26.636Z,6.00
2023-02-06T16:55:01.359Z,5.90
2023-02-06T16:57:35.226Z,5.80
2023-02-06T17:00:05.156Z,5.70
2023-02-06T17:02:32.346Z,5.60
2023-02-06T17:05:00.182Z,5.60
2023-02-06T17:07:30.861Z,5.50
2023-02-06T17:09:59.660Z,5.40
2023-02-06T17:12:27.382Z,5.40
2023-02-06T17:14:54.797Z,5.30
2023-02-06T17:17:23.504Z,5.30
2023-02-06T17:19:52.258Z,5.30
2023-02-06T17:22:19.692Z,5.30
2023-02-06T17:24:46.839Z,5.20
2023-02-06T17:27:20.906Z,5.20
2023-02-06T17:29:49.290Z,5.20
2023-02-06T17:32:21.866Z,5.20
2023-02-06T17:34:50.544Z,5.20
2023-02-06T17:37:20.880Z,5.30
2023-02-06T17:39:52.644Z,5.30
2023-02-06T17:42:22.017Z,5.40
2023-02-06T17:44:49.545Z,5.40
2023-02-06T17:47:16.895Z,5.40
2023-02-06T17:49:44.006Z,5.40
2023-02-06T17:52:10.957Z,5.40
2023-02-06T17:54:38.155Z,5.30
2023-02-06T17:57:05.106Z,5.30
2023-02-06T17:59:32.306Z,5.30
2023-02-06T18:02:00.610Z,5.30
2023-02-06T18:04:28.714Z,5.30
2023-02-06T18:07:01.996Z,5.30
2023-02-06T18:10:06.142Z,5.30
2023-02-06T18:12:43.843Z,5.20
2023-02-06T18:15:19.095Z,5.10
2023-02-06T18:17:46.402Z,5.10
2023-02-06T18:20:13.575Z,5.00
2023-02-06T18:22:41.390Z,5.00
2023-02-06T18:25:11.243Z,5.00
2023-02-06T18:27:42.052Z,5.00
2023-02-06T18:30:10.134Z,5.00
2023-02-06T18:32:38.827Z,5.00
2023-02-06T18:35:12.727Z,4.90
2023-02-06T18:37:40.038Z,4.90
2023-02-06T18:40:07.436Z,4.90
2023-02-06T18:42:54.396Z,4.90
2023-02-06T18:45:24.296Z,4.90
2023-02-06T18:47:51.802Z,4.90
2023-02-06T18:50:22.060Z,4.80
2023-02-06T18:52:52.537Z,4.80
2023-02-06T18:55:20.650Z,4.70
2023-02-06T18:57:47.703Z,4.70
2023-02-06T19:00:17.112Z,4.60
2023-02-06T19:02:44.287Z,4.60
2023-02-06T19:05:11.936Z,4.60
2023-02-06T19:07:39.066Z,4.50
2023-02-06T19:10:10.205Z,4.50
2023-02-06T19:12:38.778Z,4.60
2023-02-06T19:15:10.169Z,4.60
2023-02-06T19:17:38.314Z,4.60
2023-02-06T19:20:06.681Z,4.70
2023-02-06T19:22:35.486Z,4.60
2023-02-06T19:25:04.165Z,4.60
2023-02-06T19:27:31.618Z,4.50
2023-02-06T19:29:59.046Z,4.40
2023-02-06T19:32:28.847Z,4.30
2023-02-06T19:35:00.773Z,4.20
2023-02-06T19:37:27.823Z,4.20
2023-02-06T19:39:54.760Z,4.10
2023-02-06T19:42:21.764Z,4.00
2023-02-06T19:44:55.175Z,4.00
2023-02-06T19:47:23.496Z,4.00
2023-02-06T19:49:52.561Z,3.90
2023-02-06T19:52:20.278Z,3.90
2023-02-06T19:54:48.134Z,3.90
2023-02-06T19:57:16.068Z,3.80
2023-02-06T19:59:44.005Z,3.80
2023-02-06T20:02:27.978Z,3.80
2023-02-06T20:04:55.339Z,3.70
2023-02-06T20:07:22.655Z,3.70
2023-02-06T20:09:51.552Z,3.70
2023-02-06T20:12:18.622Z,3.70
2023-02-06T20:14:45.774Z,3.60
2023-02-06T20:17:17.624Z,3.60
2023-02-06T20:19:46.191Z,3.60
2023-02-06T20:22:13.361Z,3.50
2023-02-06T20:24:42.689Z,3.50
2023-02-06T20:27:12.475Z,3.50
2023-02-06T20:29:43.226Z,3.50
2023-02-06T20:32:11.308Z,3.50
2023-02-06T20:34:38.383Z,3.50
2023-02-06T20:37:09.300Z,3.40
2023-02-06T20:39:39.282Z,3.40
2023-02-06T20:42:06.394Z,3.40
2023-02-06T20:44:33.406Z,3.40
2023-02-06T20:47:01.119Z,3.30
2023-02-06T20:49:31.403Z,3.30
2023-02-06T20:51:58.896Z,3.30
2023-02-06T20:54:26.064Z,3.20
2023-02-06T20:56:53.590Z,3.20
2023-02-06T20:59:20.975Z,3.20
2023-02-06T21:01:48.532Z,3.20
2023-02-06T21:04:16.396Z,3.20
2023-02-06T21:06:44.088Z,3.20
2023-02-06T21:09:18.499Z,3.10
2023-02-06T21:11:47.949Z,3.10
2023-02-06T21:14:16.296Z,3.10
2023-02-06T21:16:43.988Z,3.10
2023-02-06T21:19:12.450Z,3.00
2023-02-06T21:21:39.913Z,3.00
2023-02-06T21:24:08.640Z,3.00
2023-02-06T21:26:36.213Z,3.00
2023-02-06T21:29:04.445Z,3.00
2023-02-06T21:31:36.779Z,3.10
2023-02-06T21:34:09.228Z,3.10
2023-02-06T21:36:38.004Z,3.20
2023-02-06T21:39:06.276Z,3.30
2023-02-06T21:41:35.262Z,3.40
2023-02-06T21:44:02.696Z,3.50
2023-02-06T21:46:33.599Z,3.50
2023-02-06T21:49:00.720Z,3.40
2023-02-06T21:51:27.920Z,3.50
2023-02-06T21:53:56.763Z,3.40
2023-02-06T21:56:29.921Z,3.40
2023-02-06T21:58:57.938Z,3.40
2023-02-06T22:01:27.705Z,3.40
2023-02-06T22:03:56.946Z,3.30
2023-02-06T22:06:24.591Z,3.20
2023-02-06T22:08:54.349Z,3.30
2023-02-06T22:11:29.925Z,3.20
2023-02-06T22:14:10.582Z,3.20
2023-02-06T22:16:38.578Z,3.20
2023-02-06T22:19:07.101Z,3.10
2023-02-06T22:21:35.181Z,3.10
2023-02-06T22:24:07.498Z,3.10
2023-02-06T22:26:36.936Z,3.10
2023-02-06T22:29:05.923Z,3.00
2023-02-06T22:31:35.550Z,3.00
2023-02-06T22:34:03.323Z,3.00
2023-02-06T22:36:34.936Z,3.00
2023-02-06T22:39:06.570Z,3.00
2023-02-06T22:41:35.091Z,3.00
2023-02-06T22:44:02.094Z,2.90
2023-02-06T22:46:33.576Z,2.90
2023-02-06T22:49:01.005Z,2.90
2023-02-06T22:51:28.432Z,2.80
2023-02-06T22:53:56.650Z,2.80
2023-02-06T22:56:32.158Z,2.80
2023-02-06T22:58:59.358Z,2.80
2023-02-06T23:01:30.673Z,2.80
2023-02-06T23:03:57.916Z,2.80
2023-02-06T23:06:26.241Z,2.80
2023-02-06T23:08:54.459Z,2.70
2023-02-06T23:11:21.618Z,2.70
2023-02-06T23:13:56.186Z,2.70
2023-02-06T23:16:24.288Z,2.70
2023-02-06T23:18:51.819Z,2.60
2023-02-06T23:21:21.181Z,2.70
2023-02-06T23:23:48.741Z,2.60
2023-02-06T23:26:17.822Z,2.60
2023-02-06T23:28:45.331Z,2.60
2023-02-06T23:31:12.666Z,2.60
2023-02-06T23:33:40.796Z,2.60
2023-02-06T23:36:12.017Z,2.60
2023-02-06T23:38:39.562Z,2.50
2023-02-06T23:41:13.198Z,2.50
2023-02-06T23:43:40.765Z,2.60
2023-02-06T23:46:11.971Z,2.50
2023-02-06T23:48:39.644Z,2.50
2023-02-06T23:51:06.874Z,2.50
2023-02-06T23:53:34.220Z,2.50
2023-02-06T23:56:01.146Z,2.50
2023-02-06T23:58:28.511Z,2.50
